sensor_id;sensor_type;location;lat;lon;timestamp;pressure;altitude;pressure_sealevel;temperature;humidity
24788;BME280;12883;52.662;5.196;2023-02-22T00:00:49;101541.81;;;8.97;100.00
24788;BME280;12883;52.662;5.196;2023-02-22T00:03:23;101544.44;;;9.05;100.00
24788;BME280;12883;52.662;5.196;2023-02-22T00:05:54;101537.69;;;9.03;100.00
24788;BME280;12883;52.662;5.196;2023-02-22T00:08:24;101544.09;;;9.08;100.00
24788;BME280;12883;52.662;5.196;2023-02-22T00:10:50;101545.22;;;9.14;100.00
24788;BME280;12883;52.662;5.196;2023-02-22T00:13:17;101542.78;;;9.04;100.00
24788;BME280;12883;52.662;5.196;2023-02-22T00:15:43;101549.94;;;8.96;100.00
24788;BME280;12883;52.662;5.196;2023-02-22T00:18:14;101547.59;;;9.01;100.00
24788;BME280;12883;52.662;5.196;2023-02-22T00:20:40;101545.78;;;9.01;100.00
24788;BME280;12883;52.662;5.196;2023-02-22T00:23:08;101290.06;;;7.38;100.00
24788;BME280;12883;52.662;5.196;2023-02-22T00:25:37;101542.81;;;8.96;100.00
24788;BME280;12883;52.662;5.196;2023-02-22T00:28:02;101557.56;;;8.91;100.00
24788;BME280;12883;52.662;5.196;2023-02-22T00:30:30;101550.13;;;8.94;100.00
24788;BME280;12883;52.662;5.196;2023-02-22T00:32:56;101547.44;;;9.02;100.00
24788;BME280;12883;52.662;5.196;2023-02-22T00:35:27;101549.09;;;9.03;100.00
24788;BME280;12883;52.662;5.196;2023-02-22T00:37:55;101551.72;;;9.03;100.00
24788;BME280;12883;52.662;5.196;2023-02-22T00:40:30;101538.84;;;9.00;100.00
24788;BME280;12883;52.662;5.196;2023-02-22T00:42:56;101490.13;;;8.79;100.00
24788;BME280;12883;52.662;5.196;2023-02-22T00:45:23;101481.38;;;8.70;100.00
24788;BME280;12883;52.662;5.196;2023-02-22T00:47:50;101537.50;;;9.04;100.00
24788;BME280;12883;52.662;5.196;2023-02-22T00:50:16;101520.44;;;9.07;100.00
24788;BME280;12883;52.662;5.196;2023-02-22T00:52:42;101530.19;;;9.14;100.00
24788;BME280;12883;52.662;5.196;2023-02-22T00:55:09;101529.03;;;9.09;100.00
24788;BME280;12883;52.662;5.196;2023-02-22T00:57:35;101531.50;;;9.10;100.00
24788;BME280;12883;52.662;5.196;2023-02-22T01:00:04;101532.69;;;9.08;100.00
24788;BME280;12883;52.662;5.196;2023-02-22T01:02:39;101527.28;;;8.93;100.00
24788;BME280;12883;52.662;5.196;2023-02-22T01:05:10;101515.38;;;8.89;100.00
24788;BME280;12883;52.662;5.196;2023-02-22T01:07:39;101524.13;;;8.98;100.00
24788;BME280;12883;52.662;5.196;2023-02-22T01:10:06;101505.31;;;8.85;100.00
24788;BME280;12883;52.662;5.196;2023-02-22T01:12:33;101521.31;;;8.91;100.00
24788;BME280;12883;52.662;5.196;2023-02-22T01:14:59;101520.69;;;8.89;100.00
24788;BME280;12883;52.662;5.196;2023-02-22T01:17:25;101497.47;;;8.61;100.00
24788;BME280;12883;52.662;5.196;2023-02-22T01:19:51;101511.56;;;8.92;100.00
24788;BME280;12883;52.662;5.196;2023-02-22T01:22:17;101503.88;;;8.74;100.00
24788;BME280;12883;52.662;5.196;2023-02-22T01:24:43;101509.09;;;8.90;100.00
24788;BME280;12883;52.662;5.196;2023-02-22T01:27:08;101514.75;;;8.87;100.00
24788;BME280;12883;52.662;5.196;2023-02-22T01:29:35;101494.72;;;8.85;100.00
24788;BME280;12883;52.662;5.196;2023-02-22T01:32:00;101504.81;;;8.89;100.00
24788;BME280;12883;52.662;5.196;2023-02-22T01:34:25;101497.22;;;8.86;100.00
24788;BME280;12883;52.662;5.196;2023-02-22T01:36:51;101489.09;;;8.88;100.00
24788;BME280;12883;52.662;5.196;2023-02-22T01:39:16;101483.78;;;8.88;100.00
24788;BME280;12883;52.662;5.196;2023-02-22T01:41:45;101492.06;;;8.93;100.00
24788;BME280;12883;52.662;5.196;2023-02-22T01:44:24;101488.78;;;8.83;100.00
24788;BME280;12883;52.662;5.196;2023-02-22T01:46:52;101491.56;;;8.89;100.00
24788;BME280;12883;52.662;5.196;2023-02-22T01:49:17;101486.66;;;8.78;100.00
24788;BME280;12883;52.662;5.196;2023-02-22T01:51:47;101462.19;;;8.76;100.00
24788;BME280;12883;52.662;5.196;2023-02-22T01:54:20;101478.84;;;8.85;100.00
24788;BME280;12883;52.662;5.196;2023-02-22T01:59:24;101465.19;;;8.73;100.00
24788;BME280;12883;52.662;5.196;2023-02-22T02:01:50;101482.66;;;8.82;100.00
24788;BME280;12883;52.662;5.196;2023-02-22T02:04:19;101476.72;;;8.80;100.00
24788;BME280;12883;52.662;5.196;2023-02-22T02:06:51;101471.59;;;8.79;100.00
24788;BME280;12883;52.662;5.196;2023-02-22T02:09:22;101473.91;;;8.82;100.00
24788;BME280;12883;52.662;5.196;2023-02-22T02:11:49;101481.06;;;8.73;100.00
24788;BME280;12883;52.662;5.196;2023-02-22T02:14:16;101478.06;;;8.76;100.00
24788;BME280;12883;52.662;5.196;2023-02-22T02:16:48;101479.53;;;8.79;100.00
24788;BME280;12883;52.662;5.196;2023-02-22T02:19:36;101471.75;;;8.77;100.00
24788;BME280;12883;52.662;5.196;2023-02-22T02:36:12;101459.59;;;8.60;100.00
24788;BME280;12883;52.662;5.196;2023-02-22T02:39:14;101453.47;;;8.60;100.00
24788;BME280;12883;52.662;5.196;2023-02-22T02:41:48;101457.97;;;8.59;100.00
24788;BME280;12883;52.662;5.196;2023-02-22T02:44:26;101428.91;;;8.43;100.00
24788;BME280;12883;52.662;5.196;2023-02-22T02:47:00;101436.81;;;8.51;100.00
24788;BME280;12883;52.662;5.196;2023-02-22T02:49:34;101445.09;;;8.48;100.00
24788;BME280;12883;52.662;5.196;2023-02-22T02:52:03;101439.31;;;8.45;100.00
24788;BME280;12883;52.662;5.196;2023-02-22T02:54:30;101436.34;;;8.48;100.00
24788;BME280;12883;52.662;5.196;2023-02-22T02:56:57;101405.84;;;8.21;100.00
24788;BME280;12883;52.662;5.196;2023-02-22T02:59:28;101423.94;;;8.48;100.00
24788;BME280;12883;52.662;5.196;2023-02-22T03:02:21;101422.97;;;8.41;100.00
24788;BME280;12883;52.662;5.196;2023-02-22T03:08:17;101416.88;;;8.41;100.00
24788;BME280;12883;52.662;5.196;2023-02-22T03:11:07;101420.97;;;8.43;100.00
24788;BME280;12883;52.662;5.196;2023-02-22T03:16:27;101428.28;;;8.33;100.00
24788;BME280;12883;52.662;5.196;2023-02-22T03:18:59;101418.22;;;8.29;100.00
24788;BME280;12883;52.662;5.196;2023-02-22T03:21:46;101419.34;;;8.34;100.00
24788;BME280;12883;52.662;5.196;2023-02-22T03:24:29;101413.25;;;8.26;100.00
24788;BME280;12883;52.662;5.196;2023-02-22T03:27:00;101417.38;;;8.28;100.00
24788;BME280;12883;52.662;5.196;2023-02-22T03:29:29;101407.81;;;8.27;100.00
24788;BME280;12883;52.662;5.196;2023-02-22T03:32:02;101410.78;;;8.24;100.00
24788;BME280;12883;52.662;5.196;2023-02-22T03:34:40;101404.19;;;8.20;100.00
24788;BME280;12883;52.662;5.196;2023-02-22T03:37:12;101404.19;;;8.20;100.00
24788;BME280;12883;52.662;5.196;2023-02-22T03:39:41;101371.16;;;8.00;100.00
24788;BME280;12883;52.662;5.196;2023-02-22T03:42:11;101349.56;;;7.89;100.00
24788;BME280;12883;52.662;5.196;2023-02-22T03:44:39;101396.25;;;8.12;100.00
24788;BME280;12883;52.662;5.196;2023-02-22T03:47:10;101371.16;;;8.00;100.00
24788;BME280;12883;52.662;5.196;2023-02-22T03:49:56;101384.16;;;8.18;100.00
24788;BME280;12883;52.662;5.196;2023-02-22T03:52:26;101394.94;;;8.08;100.00
24788;BME280;12883;52.662;5.196;2023-02-22T03:54:51;101397.75;;;8.07;100.00
24788;BME280;12883;52.662;5.196;2023-02-22T03:57:25;101390.63;;;8.07;100.00
24788;BME280;12883;52.662;5.196;2023-02-22T03:59:51;101390.34;;;8.02;100.00
24788;BME280;12883;52.662;5.196;2023-02-22T04:02:17;101382.41;;;7.94;100.00
24788;BME280;12883;52.662;5.196;2023-02-22T04:04:44;101341.50;;;7.66;100.00
24788;BME280;12883;52.662;5.196;2023-02-22T04:07:10;101377.97;;;7.87;100.00
24788;BME280;12883;52.662;5.196;2023-02-22T04:09:35;101386.72;;;7.87;100.00
24788;BME280;12883;52.662;5.196;2023-02-22T04:12:01;101392.16;;;7.94;100.00
24788;BME280;12883;52.662;5.196;2023-02-22T04:14:28;101382.91;;;7.90;100.00
24788;BME280;12883;52.662;5.196;2023-02-22T04:16:53;101379.09;;;8.00;100.00
24788;BME280;12883;52.662;5.196;2023-02-22T04:19:19;101378.13;;;7.85;100.00
24788;BME280;12883;52.662;5.196;2023-02-22T04:21:45;101379.28;;;7.83;100.00
24788;BME280;12883;52.662;5.196;2023-02-22T04:24:10;101380.28;;;7.90;100.00
24788;BME280;12883;52.662;5.196;2023-02-22T04:26:36;101383.41;;;7.85;100.00
24788;BME280;12883;52.662;5.196;2023-02-22T04:29:01;101379.28;;;7.83;100.00
24788;BME280;12883;52.662;5.196;2023-02-22T04:31:28;101379.28;;;7.83;100.00
24788;BME280;12883;52.662;5.196;2023-02-22T04:33:54;101381.81;;;7.68;100.00
24788;BME280;12883;52.662;5.196;2023-02-22T04:36:19;101374.88;;;7.67;100.00
24788;BME280;12883;52.662;5.196;2023-02-22T04:38:46;101368.25;;;7.71;100.00
24788;BME280;12883;52.662;5.196;2023-02-22T04:41:11;101348.16;;;7.54;100.00
24788;BME280;12883;52.662;5.196;2023-02-22T04:43:37;101370.25;;;7.69;100.00
24788;BME280;12883;52.662;5.196;2023-02-22T04:46:02;101373.38;;;7.65;100.00
24788;BME280;12883;52.662;5.196;2023-02-22T04:48:28;101356.56;;;7.58;100.00
24788;BME280;12883;52.662;5.196;2023-02-22T04:50:54;101351.78;;;7.61;100.00
24788;BME280;12883;52.662;5.196;2023-02-22T04:53:19;101349.13;;;7.61;100.00
24788;BME280;12883;52.662;5.196;2023-02-22T04:55:45;101337.38;;;7.64;100.00
24788;BME280;12883;52.662;5.196;2023-02-22T04:58:10;101338.88;;;7.58;100.00
24788;BME280;12883;52.662;5.196;2023-02-22T05:00:35;101338.38;;;7.55;100.00
24788;BME280;12883;52.662;5.196;2023-02-22T05:03:01;101335.75;;;7.55;100.00
24788;BME280;12883;52.662;5.196;2023-02-22T05:05:26;101334.25;;;7.52;100.00
24788;BME280;12883;52.662;5.196;2023-02-22T05:07:51;101327.84;;;7.47;100.00
24788;BME280;12883;52.662;5.196;2023-02-22T05:10:17;101323.56;;;7.38;100.00
24788;BME280;12883;52.662;5.196;2023-02-22T05:12:43;101319.78;;;7.40;100.00
24788;BME280;12883;52.662;5.196;2023-02-22T05:15:09;101318.59;;;7.35;100.00
24788;BME280;12883;52.662;5.196;2023-02-22T05:17:35;101303.91;;;7.32;100.00
24788;BME280;12883;52.662;5.196;2023-02-22T05:20:01;101298.00;;;7.30;100.00
24788;BME280;12883;52.662;5.196;2023-02-22T05:22:27;101314.81;;;7.45;100.00
24788;BME280;12883;52.662;5.196;2023-02-22T05:24:52;101311.19;;;7.38;100.00
24788;BME280;12883;52.662;5.196;2023-02-22T05:27:18;101307.53;;;7.39;100.00
24788;BME280;12883;52.662;5.196;2023-02-22T05:29:44;101282.00;;;7.24;100.00
24788;BME280;12883;52.662;5.196;2023-02-22T05:32:09;101299.50;;;7.25;100.00
24788;BME280;12883;52.662;5.196;2023-02-22T05:34:36;101302.78;;;7.27;100.00
24788;BME280;12883;52.662;5.196;2023-02-22T05:37:02;101293.72;;;7.29;100.00
24788;BME280;12883;52.662;5.196;2023-02-22T05:39:28;101301.63;;;7.29;100.00
24788;BME280;12883;52.662;5.196;2023-02-22T05:41:53;101287.59;;;7.21;100.00
24788;BME280;12883;52.662;5.196;2023-02-22T05:44:19;101292.72;;;7.22;100.00
24788;BME280;12883;52.662;5.196;2023-02-22T05:46:44;101292.06;;;7.12;100.00
24788;BME280;12883;52.662;5.196;2023-02-22T05:49:09;101288.75;;;7.18;100.00
24788;BME280;12883;52.662;5.196;2023-02-22T05:51:35;101290.25;;;7.21;100.00
24788;BME280;12883;52.662;5.196;2023-02-22T05:54:00;101288.75;;;7.18;100.00
24788;BME280;12883;52.662;5.196;2023-02-22T05:56:27;101282.66;;;7.18;100.00
24788;BME280;12883;52.662;5.196;2023-02-22T05:58:54;101225.78;;;6.75;100.00
24788;BME280;12883;52.662;5.196;2023-02-22T06:01:20;101283.81;;;7.15;100.00
24788;BME280;12883;52.662;5.196;2023-02-22T06:03:47;101278.88;;;7.12;100.00
24788;BME280;12883;52.662;5.196;2023-02-22T06:06:13;101267.00;;;7.08;100.00
24788;BME280;12883;52.662;5.196;2023-02-22T06:08:39;101278.03;;;7.20;100.00
24788;BME280;12883;52.662;5.196;2023-02-22T06:11:04;101263.34;;;7.25;100.00
24788;BME280;12883;52.662;5.196;2023-02-22T06:13:30;101271.94;;;7.27;100.00
24788;BME280;12883;52.662;5.196;2023-02-22T06:15:55;101272.25;;;7.24;100.00
24788;BME280;12883;52.662;5.196;2023-02-22T06:18:20;101266.66;;;7.27;100.00
24788;BME280;12883;52.662;5.196;2023-02-22T06:20:46;101260.22;;;7.30;100.00
24788;BME280;12883;52.662;5.196;2023-02-22T06:23:11;101272.25;;;7.24;100.00
24788;BME280;12883;52.662;5.196;2023-02-22T06:25:36;101270.13;;;7.20;100.00
24788;BME280;12883;52.662;5.196;2023-02-22T06:28:02;101271.97;;;7.19;100.00
24788;BME280;12883;52.662;5.196;2023-02-22T06:30:29;101261.38;;;7.27;100.00
24788;BME280;12883;52.662;5.196;2023-02-22T06:32:55;101255.13;;;7.28;100.00
24788;BME280;12883;52.662;5.196;2023-02-22T06:35:21;101260.41;;;7.20;100.00
24788;BME280;12883;52.662;5.196;2023-02-22T06:37:46;101257.09;;;7.34;100.00
24788;BME280;12883;52.662;5.196;2023-02-22T06:40:13;101261.03;;;7.30;100.00
24788;BME280;12883;52.662;5.196;2023-02-22T06:42:39;101269.13;;;7.29;100.00
24788;BME280;12883;52.662;5.196;2023-02-22T06:45:05;101266.66;;;7.27;100.00
24788;BME280;12883;52.662;5.196;2023-02-22T06:47:31;101236.50;;;7.06;100.00
24788;BME280;12883;52.662;5.196;2023-02-22T06:49:57;101261.88;;;7.31;100.00
24788;BME280;12883;52.662;5.196;2023-02-22T06:52:24;101264.03;;;7.27;100.00
24788;BME280;12883;52.662;5.196;2023-02-22T06:54:50;101256.41;;;7.24;100.00
24788;BME280;12883;52.662;5.196;2023-02-22T06:57:16;101265.97;;;7.25;100.00
24788;BME280;12883;52.662;5.196;2023-02-22T06:59:41;101268.16;;;7.30;100.00
24788;BME280;12883;52.662;5.196;2023-02-22T07:02:09;101265.03;;;7.26;100.00
24788;BME280;12883;52.662;5.196;2023-02-22T07:04:35;101273.91;;;7.25;100.00
24788;BME280;12883;52.662;5.196;2023-02-22T07:07:00;101260.69;;;7.25;100.00
24788;BME280;12883;52.662;5.196;2023-02-22T07:09:26;101277.53;;;7.24;100.00
24788;BME280;12883;52.662;5.196;2023-02-22T07:11:51;101274.88;;;7.32;100.00
24788;BME280;12883;52.662;5.196;2023-02-22T07:14:16;101275.22;;;7.29;100.00
24788;BME280;12883;52.662;5.196;2023-02-22T07:16:42;101256.25;;;7.26;100.00
24788;BME280;12883;52.662;5.196;2023-02-22T07:19:07;101276.72;;;7.32;100.00
24788;BME280;12883;52.662;5.196;2023-02-22T07:21:33;101208.97;;;6.92;100.00
24788;BME280;12883;52.662;5.196;2023-02-22T07:23:58;101267.97;;;7.31;100.00
24788;BME280;12883;52.662;5.196;2023-02-22T07:26:24;101259.53;;;7.36;100.00
24788;BME280;12883;52.662;5.196;2023-02-22T07:28:50;101251.47;;;7.37;100.00
24788;BME280;12883;52.662;5.196;2023-02-22T07:31:16;101281.16;;;7.39;100.00
24788;BME280;12883;52.662;5.196;2023-02-22T07:33:42;101265.78;;;7.43;100.00
24788;BME280;12883;52.662;5.196;2023-02-22T07:36:08;101276.84;;;7.38;100.00
24788;BME280;12883;52.662;5.196;2023-02-22T07:38:33;101263.16;;;7.35;100.00
24788;BME280;12883;52.662;5.196;2023-02-22T07:40:59;101277.19;;;7.43;100.00
24788;BME280;12883;52.662;5.196;2023-02-22T07:43:26;101264.50;;;7.39;100.00
24788;BME280;12883;52.662;5.196;2023-02-22T07:45:56;101291.88;;;7.38;100.00
24788;BME280;12883;52.662;5.196;2023-02-22T07:48:24;101270.78;;;7.38;100.00
24788;BME280;12883;52.662;5.196;2023-02-22T07:50:50;101264.00;;;7.35;100.00
24788;BME280;12883;52.662;5.196;2023-02-22T07:53:20;101263.34;;;7.33;100.00
24788;BME280;12883;52.662;5.196;2023-02-22T07:55:47;101260.03;;;7.39;100.00
24788;BME280;12883;52.662;5.196;2023-02-22T07:58:18;101216.84;;;7.16;100.00
24788;BME280;12883;52.662;5.196;2023-02-22T08:00:44;101260.03;;;7.47;100.00
24788;BME280;12883;52.662;5.196;2023-02-22T08:03:13;101248.16;;;7.43;100.00
24788;BME280;12883;52.662;5.196;2023-02-22T08:05:41;101240.84;;;7.53;100.00
24788;BME280;12883;52.662;5.196;2023-02-22T08:08:07;101227.69;;;7.45;100.00
24788;BME280;12883;52.662;5.196;2023-02-22T08:10:33;101236.25;;;7.55;100.00
24788;BME280;12883;52.662;5.196;2023-02-22T08:12:59;101233.63;;;7.55;100.00
24788;BME280;12883;52.662;5.196;2023-02-22T08:15:30;101240.69;;;7.55;100.00
24788;BME280;12883;52.662;5.196;2023-02-22T08:17:57;101239.69;;;7.56;100.00
24788;BME280;12883;52.662;5.196;2023-02-22T08:20:24;101255.06;;;7.52;100.00
24788;BME280;12883;52.662;5.196;2023-02-22T08:22:50;101251.09;;;7.56;100.00
24788;BME280;12883;52.662;5.196;2023-02-22T08:25:17;101265.78;;;7.59;100.00
24788;BME280;12883;52.662;5.196;2023-02-22T08:27:43;101244.34;;;7.54;100.00
24788;BME280;12883;52.662;5.196;2023-02-22T08:30:28;101250.75;;;7.59;100.00
24788;BME280;12883;52.662;5.196;2023-02-22T08:32:54;101268.91;;;7.62;100.00
24788;BME280;12883;52.662;5.196;2023-02-22T08:35:21;101246.81;;;7.39;100.00
24788;BME280;12883;52.662;5.196;2023-02-22T08:37:50;101266.09;;;7.56;100.00
24788;BME280;12883;52.662;5.196;2023-02-22T08:40:19;101268.22;;;7.60;100.00
24788;BME280;12883;52.662;5.196;2023-02-22T08:42:45;101255.72;;;7.62;100.00
24788;BME280;12883;52.662;5.196;2023-02-22T08:45:10;101257.34;;;7.63;100.00
24788;BME280;12883;52.662;5.196;2023-02-22T08:47:37;101251.41;;;7.61;100.00
24788;BME280;12883;52.662;5.196;2023-02-22T08:50:03;101260.81;;;7.72;100.00
24788;BME280;12883;52.662;5.196;2023-02-22T08:52:29;101237.38;;;7.61;100.00
24788;BME280;12883;52.662;5.196;2023-02-22T08:54:54;101257.81;;;7.75;100.00
24788;BME280;12883;52.662;5.196;2023-02-22T08:57:20;101261.28;;;7.75;100.00
24788;BME280;12883;52.662;5.196;2023-02-22T08:59:46;101245.44;;;7.75;100.00
24788;BME280;12883;52.662;5.196;2023-02-22T09:02:20;101243.28;;;7.79;100.00
24788;BME280;12883;52.662;5.196;2023-02-22T09:04:47;101243.91;;;7.81;100.00
24788;BME280;12883;52.662;5.196;2023-02-22T09:07:14;101257.63;;;7.84;100.00
24788;BME280;12883;52.662;5.196;2023-02-22T09:09:41;101241.09;;;7.90;100.00
24788;BME280;12883;52.662;5.196;2023-02-22T09:12:06;101246.19;;;7.92;100.00
24788;BME280;12883;52.662;5.196;2023-02-22T09:14:32;101255.56;;;7.94;100.00
24788;BME280;12883;52.662;5.196;2023-02-22T09:16:58;101234.31;;;7.88;100.00
24788;BME280;12883;52.662;5.196;2023-02-22T09:19:23;101228.56;;;7.84;100.00
24788;BME280;12883;52.662;5.196;2023-02-22T09:21:53;101242.38;;;7.94;100.00
24788;BME280;12883;52.662;5.196;2023-02-22T09:24:18;101231.50;;;7.89;100.00
24788;BME280;12883;52.662;5.196;2023-02-22T09:26:48;101227.03;;;7.90;100.00
24788;BME280;12883;52.662;5.196;2023-02-22T09:29:21;101222.59;;;7.90;100.00
24788;BME280;12883;52.662;5.196;2023-02-22T09:31:48;101205.16;;;8.04;100.00
24788;BME280;12883;52.662;5.196;2023-02-22T09:34:14;101208.75;;;8.11;100.00
24788;BME280;12883;52.662;5.196;2023-02-22T09:36:42;101214.94;;;8.03;100.00
24788;BME280;12883;52.662;5.196;2023-02-22T09:39:08;101216.38;;;8.14;100.00
24788;BME280;12883;52.662;5.196;2023-02-22T09:42:04;101197.72;;;8.07;100.00
24788;BME280;12883;52.662;5.196;2023-02-22T09:47:01;101222.47;;;8.14;100.00
24788;BME280;12883;52.662;5.196;2023-02-22T09:49:36;101211.59;;;8.09;100.00
24788;BME280;12883;52.662;5.196;2023-02-22T09:52:05;101212.56;;;8.16;100.00
24788;BME280;12883;52.662;5.196;2023-02-22T09:54:38;101225.09;;;8.14;100.00
24788;BME280;12883;52.662;5.196;2023-02-22T09:57:18;101195.38;;;8.20;100.00
24788;BME280;12883;52.662;5.196;2023-02-22T09:59:56;101194.06;;;8.16;100.00
24788;BME280;12883;52.662;5.196;2023-02-22T10:02:29;101194.38;;;8.21;100.00
24788;BME280;12883;52.662;5.196;2023-02-22T10:07:37;101192.50;;;8.30;100.00
24788;BME280;12883;52.662;5.196;2023-02-22T10:10:05;101175.56;;;8.39;100.00
24788;BME280;12883;52.662;5.196;2023-02-22T10:26:28;101171.59;;;8.65;100.00
24788;BME280;12883;52.662;5.196;2023-02-22T10:29:13;101175.00;;;8.51;100.00
24788;BME280;12883;52.662;5.196;2023-02-22T10:31:45;101185.00;;;8.64;100.00
24788;BME280;12883;52.662;5.196;2023-02-22T10:34:22;101166.84;;;8.61;100.00
24788;BME280;12883;52.662;5.196;2023-02-22T10:36:54;101166.41;;;8.72;100.00
24788;BME280;12883;52.662;5.196;2023-02-22T10:39:33;101164.28;;;8.67;100.00
24788;BME280;12883;52.662;5.196;2023-02-22T10:42:03;101154.09;;;8.64;100.00
24788;BME280;12883;52.662;5.196;2023-02-22T10:44:33;101162.50;;;8.82;100.00
24788;BME280;12883;52.662;5.196;2023-02-22T10:47:00;101153.09;;;8.80;100.00
24788;BME280;12883;52.662;5.196;2023-02-22T10:49:40;101143.50;;;8.79;100.00
24788;BME280;12883;52.662;5.196;2023-02-22T10:52:24;101162.78;;;8.87;100.00
24788;BME280;12883;52.662;5.196;2023-02-22T10:54:50;101147.94;;;8.64;100.00
24788;BME280;12883;52.662;5.196;2023-02-22T10:57:22;101186.84;;;8.78;100.00
24788;BME280;12883;52.662;5.196;2023-02-22T10:59:49;101190.72;;;8.90;100.00
24788;BME280;12883;52.662;5.196;2023-02-22T11:02:29;101188.63;;;8.85;100.00
24788;BME280;12883;52.662;5.196;2023-02-22T11:04:57;101180.78;;;8.92;100.00
24788;BME280;12883;52.662;5.196;2023-02-22T11:07:29;101178.81;;;9.08;100.00
24788;BME280;12883;52.662;5.196;2023-02-22T11:10:06;101181.28;;;9.10;100.00
24788;BME280;12883;52.662;5.196;2023-02-22T11:12:38;101179.25;;;9.12;100.00
24788;BME280;12883;52.662;5.196;2023-02-22T11:17:48;101168.41;;;9.21;100.00
24788;BME280;12883;52.662;5.196;2023-02-22T11:20:22;101157.81;;;9.21;100.00
24788;BME280;12883;52.662;5.196;2023-02-22T11:22:57;101176.19;;;9.37;100.00
24788;BME280;12883;52.662;5.196;2023-02-22T11:25:29;101160.84;;;9.33;100.00
24788;BME280;12883;52.662;5.196;2023-02-22T11:28:06;101129.78;;;9.12;100.00
24788;BME280;12883;52.662;5.196;2023-02-22T11:30:33;101158.19;;;9.33;100.00
24788;BME280;12883;52.662;5.196;2023-02-22T11:35:55;101146.59;;;9.34;100.00
24788;BME280;12883;52.662;5.196;2023-02-22T11:38:24;101146.50;;;9.42;100.00
24788;BME280;12883;52.662;5.196;2023-02-22T11:43:45;101138.00;;;9.46;100.00
24788;BME280;12883;52.662;5.196;2023-02-22T11:46:20;101140.09;;;9.36;100.00
24788;BME280;12883;52.662;5.196;2023-02-22T11:49:10;101170.88;;;9.37;100.00
24788;BME280;12883;52.662;5.196;2023-02-22T11:51:55;101172.06;;;9.35;100.00
24788;BME280;12883;52.662;5.196;2023-02-22T11:54:36;101177.63;;;9.40;100.00
24788;BME280;12883;52.662;5.196;2023-02-22T12:02:52;101169.59;;;9.48;100.00
24788;BME280;12883;52.662;5.196;2023-02-22T12:08:01;101163.75;;;9.52;100.00
24788;BME280;12883;52.662;5.196;2023-02-22T12:10:44;101145.94;;;9.46;100.00
24788;BME280;12883;52.662;5.196;2023-02-22T12:13:19;101146.09;;;9.59;100.00
24788;BME280;12883;52.662;5.196;2023-02-22T12:18:45;101157.44;;;9.53;100.00
24788;BME280;12883;52.662;5.196;2023-02-22T12:21:19;101152.81;;;9.55;100.00
24788;BME280;12883;52.662;5.196;2023-02-22T12:23:49;101141.19;;;9.56;100.00
24788;BME280;12883;52.662;5.196;2023-02-22T12:26:28;101136.81;;;9.63;100.00
24788;BME280;12883;52.662;5.196;2023-02-22T12:28:59;101126.56;;;9.60;100.00
24788;BME280;12883;52.662;5.196;2023-02-22T12:31:31;101132.41;;;9.70;100.00
24788;BME280;12883;52.662;5.196;2023-02-22T12:34:12;101123.38;;;9.64;100.00
24788;BME280;12883;52.662;5.196;2023-02-22T12:36:46;101124.28;;;9.71;100.00
24788;BME280;12883;52.662;5.196;2023-02-22T12:42:11;101098.19;;;9.54;100.00
24788;BME280;12883;52.662;5.196;2023-02-22T12:44:40;101126.38;;;9.76;100.00
24788;BME280;12883;52.662;5.196;2023-02-22T12:47:15;101123.16;;;9.80;100.00
24788;BME280;12883;52.662;5.196;2023-02-22T12:49:51;101114.47;;;9.72;100.00
24788;BME280;12883;52.662;5.196;2023-02-22T12:58:00;101111.28;;;9.76;100.00
24788;BME280;12883;52.662;5.196;2023-02-22T13:00:40;101104.94;;;9.92;100.00
24788;BME280;12883;52.662;5.196;2023-02-22T13:03:33;101109.72;;;9.82;100.00
24788;BME280;12883;52.662;5.196;2023-02-22T13:08:57;101098.44;;;9.94;100.00
24788;BME280;12883;52.662;5.196;2023-02-22T13:14:13;101109.78;;;9.88;100.00
24788;BME280;12883;52.662;5.196;2023-02-22T13:16:54;101111.81;;;9.86;100.00
24788;BME280;12883;52.662;5.196;2023-02-22T13:19:32;101130.41;;;9.93;100.00
24788;BME280;12883;52.662;5.196;2023-02-22T13:22:06;101118.44;;;9.97;100.00
24788;BME280;12883;52.662;5.196;2023-02-22T13:27:54;101111.75;;;10.01;100.00
24788;BME280;12883;52.662;5.196;2023-02-22T13:30:27;101117.72;;;10.03;100.00
24788;BME280;12883;52.662;5.196;2023-02-22T13:36:01;101118.97;;;10.07;100.00
24788;BME280;12883;52.662;5.196;2023-02-22T13:39:06;101107.44;;;10.14;100.00
24788;BME280;12883;52.662;5.196;2023-02-22T13:42:18;101090.84;;;10.06;100.00
24788;BME280;12883;52.662;5.196;2023-02-22T13:53:19;101095.81;;;10.15;100.00
24788;BME280;12883;52.662;5.196;2023-02-22T13:55:51;101095.00;;;10.15;100.00
24788;BME280;12883;52.662;5.196;2023-02-22T13:58:19;101099.81;;;10.26;100.00
24788;BME280;12883;52.662;5.196;2023-02-22T14:00:52;101098.28;;;10.17;100.00
24788;BME280;12883;52.662;5.196;2023-02-22T14:03:38;101095.13;;;10.28;100.00
24788;BME280;12883;52.662;5.196;2023-02-22T14:06:37;101096.22;;;10.33;100.00
24788;BME280;12883;52.662;5.196;2023-02-22T14:09:13;101092.53;;;10.34;100.00
24788;BME280;12883;52.662;5.196;2023-02-22T14:11:43;101096.84;;;10.35;100.00
24788;BME280;12883;52.662;5.196;2023-02-22T14:14:12;101092.56;;;10.13;100.00
24788;BME280;12883;52.662;5.196;2023-02-22T14:16:39;101086.03;;;10.16;100.00
24788;BME280;12883;52.662;5.196;2023-02-22T14:21:34;101091.84;;;10.26;100.00
24788;BME280;12883;52.662;5.196;2023-02-22T14:24:14;101109.25;;;10.35;100.00
24788;BME280;12883;52.662;5.196;2023-02-22T14:26:54;101105.25;;;10.18;100.00
24788;BME280;12883;52.662;5.196;2023-02-22T14:29:19;101089.81;;;10.28;100.00
24788;BME280;12883;52.662;5.196;2023-02-22T14:34:13;101048.13;;;10.01;100.00
24788;BME280;12883;52.662;5.196;2023-02-22T14:36:58;101080.22;;;10.27;100.00
24788;BME280;12883;52.662;5.196;2023-02-22T14:42:03;101079.72;;;10.17;100.00